Sugar Land, Texas
Current Conditions -  °F | °C
As of 3:53 PM on Saturday 20 Dec 2014 (Local Time) from KSGR Reporting Station
Overcast Overcast  
Wind Chill: 55°   Ceiling: 1300
Heat Index: 55°   Visibility: 10mi
Dew Point: 49°   Wind: 8mph
Humidity: 80%   Direction: 30°NNE
Pressure: 30.14"   Gusts: NA
Location:  29.63°N, 95.6°W
Report Text: KSGR 202153Z 03007KT 10SM OVC013 13/09 A3014 RMK AO2 SLP207 T01280094
Loading
Personal Weather Stations






























Interactive Weather Map New forecast layout! Learn more

10-Day Weather Forecast

Advertisements
Track Severe Weather on mobile